sensor_id;sensor_type;location;lat;lon;timestamp;temperature;humidity
69715;HTU21D;56981;53.532;49.398;2023-08-31T00:01:14;15.57;65.88
69715;HTU21D;56981;53.532;49.398;2023-08-31T00:03:40;15.54;66.30
69715;HTU21D;56981;53.532;49.398;2023-08-31T00:06:06;15.43;66.23
69715;HTU21D;56981;53.532;49.398;2023-08-31T00:08:34;15.36;66.40
69715;HTU21D;56981;53.532;49.398;2023-08-31T00:11:00;15.24;66.83
69715;HTU21D;56981;53.532;49.398;2023-08-31T00:13:27;15.13;67.89
69715;HTU21D;56981;53.532;49.398;2023-08-31T00:15:57;15.07;67.80
69715;HTU21D;56981;53.532;49.398;2023-08-31T00:18:27;14.97;68.29
69715;HTU21D;56981;53.532;49.398;2023-08-31T00:20:53;14.87;68.53
69715;HTU21D;56981;53.532;49.398;2023-08-31T00:23:19;14.83;69.09
69715;HTU21D;56981;53.532;49.398;2023-08-31T00:25:49;14.72;68.62
69715;HTU21D;56981;53.532;49.398;2023-08-31T00:28:20;14.66;68.69
69715;HTU21D;56981;53.532;49.398;2023-08-31T00:30:46;14.55;69.38
69715;HTU21D;56981;53.532;49.398;2023-08-31T00:33:12;14.48;70.10
69715;HTU21D;56981;53.532;49.398;2023-08-31T00:35:38;14.43;70.35
69715;HTU21D;56981;53.532;49.398;2023-08-31T00:38:08;14.32;70.22
69715;HTU21D;56981;53.532;49.398;2023-08-31T00:40:41;14.27;70.32
69715;HTU21D;56981;53.532;49.398;2023-08-31T00:43:10;14.21;69.92
69715;HTU21D;56981;53.532;49.398;2023-08-31T00:45:38;14.20;69.60
69715;HTU21D;56981;53.532;49.398;2023-08-31T00:48:06;14.19;69.26
69715;HTU21D;56981;53.532;49.398;2023-08-31T00:50:33;14.17;69.81
69715;HTU21D;56981;53.532;49.398;2023-08-31T00:52:59;14.20;68.91
69715;HTU21D;56981;53.532;49.398;2023-08-31T00:55:25;14.20;68.78
69715;HTU21D;56981;53.532;49.398;2023-08-31T00:57:52;14.21;68.90
69715;HTU21D;56981;53.532;49.398;2023-08-31T01:00:19;14.22;69.04
69715;HTU21D;56981;53.532;49.398;2023-08-31T01:06:01;14.25;68.91
69715;HTU21D;56981;53.532;49.398;2023-08-31T01:08:48;14.21;69.39
69715;HTU21D;56981;53.532;49.398;2023-08-31T01:14:16;14.04;69.68
69715;HTU21D;56981;53.532;49.398;2023-08-31T01:16:48;14.03;69.88
69715;HTU21D;56981;53.532;49.398;2023-08-31T01:22:39;13.94;70.31
69715;HTU21D;56981;53.532;49.398;2023-08-31T01:25:07;13.84;71.14
69715;HTU21D;56981;53.532;49.398;2023-08-31T01:27:35;13.82;71.09
69715;HTU21D;56981;53.532;49.398;2023-08-31T01:30:03;13.77;71.77
69715;HTU21D;56981;53.532;49.398;2023-08-31T01:32:31;13.71;71.70
69715;HTU21D;56981;53.532;49.398;2023-08-31T01:34:57;13.70;71.88
69715;HTU21D;56981;53.532;49.398;2023-08-31T01:37:34;13.66;72.03
69715;HTU21D;56981;53.532;49.398;2023-08-31T01:40:11;13.59;72.64
69715;HTU21D;56981;53.532;49.398;2023-08-31T01:42:38;13.56;72.97
69715;HTU21D;56981;53.532;49.398;2023-08-31T01:45:07;13.58;73.93
69715;HTU21D;56981;53.532;49.398;2023-08-31T01:47:34;13.55;73.79
69715;HTU21D;56981;53.532;49.398;2023-08-31T01:50:01;13.54;73.99
69715;HTU21D;56981;53.532;49.398;2023-08-31T01:52:27;13.56;73.76
69715;HTU21D;56981;53.532;49.398;2023-08-31T01:54:54;13.60;73.58
69715;HTU21D;56981;53.532;49.398;2023-08-31T01:57:20;13.67;73.47
69715;HTU21D;56981;53.532;49.398;2023-08-31T01:59:46;13.76;73.36
69715;HTU21D;56981;53.532;49.398;2023-08-31T02:02:12;13.90;72.93
69715;HTU21D;56981;53.532;49.398;2023-08-31T02:04:40;14.04;72.35
69715;HTU21D;56981;53.532;49.398;2023-08-31T02:07:06;14.42;70.43
69715;HTU21D;56981;53.532;49.398;2023-08-31T02:09:33;15.06;68.27
69715;HTU21D;56981;53.532;49.398;2023-08-31T02:11:59;15.15;67.55
69715;HTU21D;56981;53.532;49.398;2023-08-31T02:14:25;15.24;67.75
69715;HTU21D;56981;53.532;49.398;2023-08-31T02:16:51;15.30;67.46
69715;HTU21D;56981;53.532;49.398;2023-08-31T02:19:17;15.12;67.84
69715;HTU21D;56981;53.532;49.398;2023-08-31T02:21:43;15.06;67.79
69715;HTU21D;56981;53.532;49.398;2023-08-31T02:24:10;15.03;68.27
69715;HTU21D;56981;53.532;49.398;2023-08-31T02:26:36;14.99;68.57
69715;HTU21D;56981;53.532;49.398;2023-08-31T02:29:05;15.03;68.52
69715;HTU21D;56981;53.532;49.398;2023-08-31T02:31:32;15.09;68.52
69715;HTU21D;56981;53.532;49.398;2023-08-31T02:33:58;15.10;68.93
69715;HTU21D;56981;53.532;49.398;2023-08-31T02:36:25;15.10;68.43
69715;HTU21D;56981;53.532;49.398;2023-08-31T02:38:51;15.14;68.31
69715;HTU21D;56981;53.532;49.398;2023-08-31T02:41:19;15.15;68.19
69715;HTU21D;56981;53.532;49.398;2023-08-31T02:43:45;15.16;68.74
69715;HTU21D;56981;53.532;49.398;2023-08-31T02:46:12;15.18;68.23
69715;HTU21D;56981;53.532;49.398;2023-08-31T02:48:38;15.21;68.48
69715;HTU21D;56981;53.532;49.398;2023-08-31T02:51:04;15.26;68.10
69715;HTU21D;56981;53.532;49.398;2023-08-31T02:53:31;15.28;68.47
69715;HTU21D;56981;53.532;49.398;2023-08-31T02:55:57;15.41;68.13
69715;HTU21D;56981;53.532;49.398;2023-08-31T02:58:24;15.48;68.11
69715;HTU21D;56981;53.532;49.398;2023-08-31T03:00:50;15.56;67.62
69715;HTU21D;56981;53.532;49.398;2023-08-31T03:03:17;15.71;67.14
69715;HTU21D;56981;53.532;49.398;2023-08-31T03:05:44;15.78;66.60
69715;HTU21D;56981;53.532;49.398;2023-08-31T03:08:11;16.57;65.04
69715;HTU21D;56981;53.532;49.398;2023-08-31T03:10:38;18.85;56.90
69715;HTU21D;56981;53.532;49.398;2023-08-31T03:13:04;20.64;51.35
69715;HTU21D;56981;53.532;49.398;2023-08-31T03:15:34;21.93;47.21
69715;HTU21D;56981;53.532;49.398;2023-08-31T03:18:00;22.84;44.93
69715;HTU21D;56981;53.532;49.398;2023-08-31T03:20:27;23.99;42.89
69715;HTU21D;56981;53.532;49.398;2023-08-31T03:22:53;24.62;40.31
69715;HTU21D;56981;53.532;49.398;2023-08-31T03:25:19;24.56;40.48
69715;HTU21D;56981;53.532;49.398;2023-08-31T03:27:45;25.24;38.71
69715;HTU21D;56981;53.532;49.398;2023-08-31T03:30:11;25.28;37.31
69715;HTU21D;56981;53.532;49.398;2023-08-31T03:32:38;25.43;37.38
69715;HTU21D;56981;53.532;49.398;2023-08-31T03:35:04;25.76;36.55
69715;HTU21D;56981;53.532;49.398;2023-08-31T03:37:31;26.23;35.24
69715;HTU21D;56981;53.532;49.398;2023-08-31T03:39:57;26.48;34.45
69715;HTU21D;56981;53.532;49.398;2023-08-31T03:42:23;26.45;34.05
69715;HTU21D;56981;53.532;49.398;2023-08-31T03:44:49;26.58;34.28
69715;HTU21D;56981;53.532;49.398;2023-08-31T03:47:15;27.11;32.70
69715;HTU21D;56981;53.532;49.398;2023-08-31T03:49:41;27.35;32.31
69715;HTU21D;56981;53.532;49.398;2023-08-31T03:52:07;27.66;30.71
69715;HTU21D;56981;53.532;49.398;2023-08-31T03:54:33;27.68;31.44
69715;HTU21D;56981;53.532;49.398;2023-08-31T03:56:59;28.05;31.20
69715;HTU21D;56981;53.532;49.398;2023-08-31T03:59:25;27.81;31.48
69715;HTU21D;56981;53.532;49.398;2023-08-31T04:01:50;27.97;30.87
69715;HTU21D;56981;53.532;49.398;2023-08-31T04:04:17;28.17;29.91
69715;HTU21D;56981;53.532;49.398;2023-08-31T04:06:43;28.52;29.24
69715;HTU21D;56981;53.532;49.398;2023-08-31T04:09:09;28.34;29.68
69715;HTU21D;56981;53.532;49.398;2023-08-31T04:11:35;28.42;29.29
69715;HTU21D;56981;53.532;49.398;2023-08-31T04:14:01;28.76;29.41
69715;HTU21D;56981;53.532;49.398;2023-08-31T04:16:27;28.71;29.24
69715;HTU21D;56981;53.532;49.398;2023-08-31T04:18:55;28.29;30.16
69715;HTU21D;56981;53.532;49.398;2023-08-31T04:21:21;28.50;29.90
69715;HTU21D;56981;53.532;49.398;2023-08-31T04:23:47;27.94;30.57
69715;HTU21D;56981;53.532;49.398;2023-08-31T04:26:13;27.94;30.81
69715;HTU21D;56981;53.532;49.398;2023-08-31T04:28:40;27.85;30.71
69715;HTU21D;56981;53.532;49.398;2023-08-31T04:31:09;27.87;30.92
69715;HTU21D;56981;53.532;49.398;2023-08-31T04:33:36;27.83;30.94
69715;HTU21D;56981;53.532;49.398;2023-08-31T04:36:12;28.03;30.59
69715;HTU21D;56981;53.532;49.398;2023-08-31T04:38:39;28.27;30.54
69715;HTU21D;56981;53.532;49.398;2023-08-31T04:41:05;28.14;30.14
69715;HTU21D;56981;53.532;49.398;2023-08-31T04:43:31;28.05;30.31
69715;HTU21D;56981;53.532;49.398;2023-08-31T04:45:57;28.45;29.45
69715;HTU21D;56981;53.532;49.398;2023-08-31T04:48:23;28.21;28.73
69715;HTU21D;56981;53.532;49.398;2023-08-31T04:50:49;28.20;29.68
69715;HTU21D;56981;53.532;49.398;2023-08-31T04:53:18;28.28;29.07
69715;HTU21D;56981;53.532;49.398;2023-08-31T04:55:44;28.62;29.03
69715;HTU21D;56981;53.532;49.398;2023-08-31T04:58:10;28.61;28.30
69715;HTU21D;56981;53.532;49.398;2023-08-31T05:00:36;28.12;28.73
69715;HTU21D;56981;53.532;49.398;2023-08-31T05:03:02;28.44;28.48
69715;HTU21D;56981;53.532;49.398;2023-08-31T05:05:28;28.29;28.69
69715;HTU21D;56981;53.532;49.398;2023-08-31T05:07:54;28.25;28.70
69715;HTU21D;56981;53.532;49.398;2023-08-31T05:10:20;28.49;29.18
69715;HTU21D;56981;53.532;49.398;2023-08-31T05:12:46;28.57;29.22
69715;HTU21D;56981;53.532;49.398;2023-08-31T05:15:12;28.71;28.31
69715;HTU21D;56981;53.532;49.398;2023-08-31T05:17:38;28.67;27.95
69715;HTU21D;56981;53.532;49.398;2023-08-31T05:20:05;28.57;28.89
69715;HTU21D;56981;53.532;49.398;2023-08-31T05:22:33;28.72;28.35
69715;HTU21D;56981;53.532;49.398;2023-08-31T05:25:00;28.43;28.67
69715;HTU21D;56981;53.532;49.398;2023-08-31T05:27:26;28.33;28.64
69715;HTU21D;56981;53.532;49.398;2023-08-31T05:29:52;28.70;28.65
69715;HTU21D;56981;53.532;49.398;2023-08-31T05:32:18;29.18;27.91
69715;HTU21D;56981;53.532;49.398;2023-08-31T05:34:44;28.78;27.11
69715;HTU21D;56981;53.532;49.398;2023-08-31T05:37:13;28.82;27.45
69715;HTU21D;56981;53.532;49.398;2023-08-31T05:39:40;28.94;27.23
69715;HTU21D;56981;53.532;49.398;2023-08-31T05:42:06;29.07;27.17
69715;HTU21D;56981;53.532;49.398;2023-08-31T05:44:32;29.27;26.39
69715;HTU21D;56981;53.532;49.398;2023-08-31T05:46:58;29.39;26.02
69715;HTU21D;56981;53.532;49.398;2023-08-31T05:49:24;29.08;26.68
69715;HTU21D;56981;53.532;49.398;2023-08-31T05:51:50;28.85;27.36
69715;HTU21D;56981;53.532;49.398;2023-08-31T05:54:16;28.64;28.04
69715;HTU21D;56981;53.532;49.398;2023-08-31T05:56:42;28.76;27.68
69715;HTU21D;56981;53.532;49.398;2023-08-31T05:59:08;28.72;27.70
69715;HTU21D;56981;53.532;49.398;2023-08-31T06:01:35;28.50;28.05
69715;HTU21D;56981;53.532;49.398;2023-08-31T06:04:04;28.59;27.79
69715;HTU21D;56981;53.532;49.398;2023-08-31T06:06:31;28.76;27.58
69715;HTU21D;56981;53.532;49.398;2023-08-31T06:08:58;28.62;28.19
69715;HTU21D;56981;53.532;49.398;2023-08-31T06:11:25;28.82;27.20
69715;HTU21D;56981;53.532;49.398;2023-08-31T06:13:51;28.79;26.65
69715;HTU21D;56981;53.532;49.398;2023-08-31T06:16:17;28.64;27.68
69715;HTU21D;56981;53.532;49.398;2023-08-31T06:18:43;28.59;27.04
69715;HTU21D;56981;53.532;49.398;2023-08-31T06:21:10;28.52;26.64
69715;HTU21D;56981;53.532;49.398;2023-08-31T06:23:36;28.76;26.17
69715;HTU21D;56981;53.532;49.398;2023-08-31T06:26:03;28.87;25.84
69715;HTU21D;56981;53.532;49.398;2023-08-31T06:28:29;28.71;24.43
69715;HTU21D;56981;53.532;49.398;2023-08-31T06:30:55;28.93;25.10
69715;HTU21D;56981;53.532;49.398;2023-08-31T06:33:21;29.00;24.53
69715;HTU21D;56981;53.532;49.398;2023-08-31T06:35:48;29.46;24.35
69715;HTU21D;56981;53.532;49.398;2023-08-31T06:38:18;29.11;23.43
69715;HTU21D;56981;53.532;49.398;2023-08-31T06:40:45;28.72;23.62
69715;HTU21D;56981;53.532;49.398;2023-08-31T06:43:12;28.83;23.84
69715;HTU21D;56981;53.532;49.398;2023-08-31T06:45:38;28.71;23.46
69715;HTU21D;56981;53.532;49.398;2023-08-31T06:48:06;28.74;24.62
69715;HTU21D;56981;53.532;49.398;2023-08-31T06:50:35;28.83;24.62
69715;HTU21D;56981;53.532;49.398;2023-08-31T06:53:02;28.53;24.31
69715;HTU21D;56981;53.532;49.398;2023-08-31T06:55:29;28.74;24.17
69715;HTU21D;56981;53.532;49.398;2023-08-31T06:57:57;28.82;24.14
69715;HTU21D;56981;53.532;49.398;2023-08-31T07:00:24;28.88;25.23
69715;HTU21D;56981;53.532;49.398;2023-08-31T07:02:50;29.52;21.76
69715;HTU21D;56981;53.532;49.398;2023-08-31T07:05:16;29.62;22.31
69715;HTU21D;56981;53.532;49.398;2023-08-31T07:07:42;29.00;23.50
69715;HTU21D;56981;53.532;49.398;2023-08-31T07:10:09;28.72;22.77
69715;HTU21D;56981;53.532;49.398;2023-08-31T07:12:35;28.24;23.19
69715;HTU21D;56981;53.532;49.398;2023-08-31T07:15:01;28.28;25.01
69715;HTU21D;56981;53.532;49.398;2023-08-31T07:17:28;27.47;24.72
69715;HTU21D;56981;53.532;49.398;2023-08-31T07:19:54;26.97;26.01
69715;HTU21D;56981;53.532;49.398;2023-08-31T07:22:20;26.54;26.28
69715;HTU21D;56981;53.532;49.398;2023-08-31T07:24:46;26.08;27.89
69715;HTU21D;56981;53.532;49.398;2023-08-31T07:27:12;25.29;28.87
69715;HTU21D;56981;53.532;49.398;2023-08-31T07:29:41;25.51;28.39
69715;HTU21D;56981;53.532;49.398;2023-08-31T07:32:07;24.98;28.77
69715;HTU21D;56981;53.532;49.398;2023-08-31T07:34:34;24.97;28.55
69715;HTU21D;56981;53.532;49.398;2023-08-31T07:37:00;25.07;28.99
69715;HTU21D;56981;53.532;49.398;2023-08-31T07:39:26;25.27;28.78
69715;HTU21D;56981;53.532;49.398;2023-08-31T07:41:54;25.53;27.14
69715;HTU21D;56981;53.532;49.398;2023-08-31T07:44:20;25.54;27.58
69715;HTU21D;56981;53.532;49.398;2023-08-31T07:46:47;25.80;27.52
69715;HTU21D;56981;53.532;49.398;2023-08-31T07:49:13;26.03;27.10
69715;HTU21D;56981;53.532;49.398;2023-08-31T07:51:40;26.05;26.39
69715;HTU21D;56981;53.532;49.398;2023-08-31T07:54:06;26.33;26.16
69715;HTU21D;56981;53.532;49.398;2023-08-31T07:56:32;26.56;26.76
69715;HTU21D;56981;53.532;49.398;2023-08-31T07:58:58;26.49;25.36
69715;HTU21D;56981;53.532;49.398;2023-08-31T08:01:25;26.55;25.72
69715;HTU21D;56981;53.532;49.398;2023-08-31T08:03:51;26.46;27.13
69715;HTU21D;56981;53.532;49.398;2023-08-31T08:06:17;26.15;26.30
69715;HTU21D;56981;53.532;49.398;2023-08-31T08:08:44;26.10;25.97
69715;HTU21D;56981;53.532;49.398;2023-08-31T08:11:10;25.99;25.66
69715;HTU21D;56981;53.532;49.398;2023-08-31T08:13:36;26.17;26.30
69715;HTU21D;56981;53.532;49.398;2023-08-31T08:16:03;26.32;25.68
69715;HTU21D;56981;53.532;49.398;2023-08-31T08:18:30;26.16;25.85
69715;HTU21D;56981;53.532;49.398;2023-08-31T08:20:56;26.11;26.43
69715;HTU21D;56981;53.532;49.398;2023-08-31T08:23:22;25.90;25.73
69715;HTU21D;56981;53.532;49.398;2023-08-31T08:25:49;26.06;26.19
69715;HTU21D;56981;53.532;49.398;2023-08-31T08:28:15;26.21;25.53
69715;HTU21D;56981;53.532;49.398;2023-08-31T08:30:41;26.23;26.26
69715;HTU21D;56981;53.532;49.398;2023-08-31T08:33:08;26.41;25.97
69715;HTU21D;56981;53.532;49.398;2023-08-31T08:35:37;26.21;24.82
69715;HTU21D;56981;53.532;49.398;2023-08-31T08:38:04;26.19;25.80
69715;HTU21D;56981;53.532;49.398;2023-08-31T08:40:31;25.79;26.49
69715;HTU21D;56981;53.532;49.398;2023-08-31T08:43:00;25.46;27.33
69715;HTU21D;56981;53.532;49.398;2023-08-31T08:45:30;25.39;26.96
69715;HTU21D;56981;53.532;49.398;2023-08-31T08:48:04;25.12;27.10
69715;HTU21D;56981;53.532;49.398;2023-08-31T08:50:31;24.70;28.42
69715;HTU21D;56981;53.532;49.398;2023-08-31T08:53:01;24.74;28.65
69715;HTU21D;56981;53.532;49.398;2023-08-31T08:55:28;24.88;27.99
69715;HTU21D;56981;53.532;49.398;2023-08-31T08:57:54;24.58;26.09
69715;HTU21D;56981;53.532;49.398;2023-08-31T09:00:21;24.61;27.64
69715;HTU21D;56981;53.532;49.398;2023-08-31T09:02:47;24.77;28.84
69715;HTU21D;56981;53.532;49.398;2023-08-31T09:05:14;24.43;29.84
69715;HTU21D;56981;53.532;49.398;2023-08-31T09:08:00;24.20;29.64
69715;HTU21D;56981;53.532;49.398;2023-08-31T09:10:35;24.02;28.76
69715;HTU21D;56981;53.532;49.398;2023-08-31T09:13:05;23.85;30.03
69715;HTU21D;56981;53.532;49.398;2023-08-31T09:15:48;23.67;29.90
69715;HTU21D;56981;53.532;49.398;2023-08-31T09:18:27;23.55;30.00
69715;HTU21D;56981;53.532;49.398;2023-08-31T09:20:55;23.55;30.20
69715;HTU21D;56981;53.532;49.398;2023-08-31T09:23:25;23.56;31.63
69715;HTU21D;56981;53.532;49.398;2023-08-31T09:25:53;23.43;31.62
69715;HTU21D;56981;53.532;49.398;2023-08-31T09:28:21;23.40;32.06
69715;HTU21D;56981;53.532;49.398;2023-08-31T09:30:50;23.27;31.72
69715;HTU21D;56981;53.532;49.398;2023-08-31T09:33:18;23.24;31.76
69715;HTU21D;56981;53.532;49.398;2023-08-31T09:35:51;23.25;31.42
69715;HTU21D;56981;53.532;49.398;2023-08-31T09:38:18;23.15;32.22
69715;HTU21D;56981;53.532;49.398;2023-08-31T09:40:45;23.03;32.02
69715;HTU21D;56981;53.532;49.398;2023-08-31T09:43:11;22.93;32.70
69715;HTU21D;56981;53.532;49.398;2023-08-31T09:45:38;23.03;32.65
69715;HTU21D;56981;53.532;49.398;2023-08-31T09:48:05;22.94;32.54
69715;HTU21D;56981;53.532;49.398;2023-08-31T09:50:33;22.97;32.84
69715;HTU21D;56981;53.532;49.398;2023-08-31T09:53:04;22.82;32.37
69715;HTU21D;56981;53.532;49.398;2023-08-31T09:55:32;22.70;32.57
69715;HTU21D;56981;53.532;49.398;2023-08-31T09:58:00;22.63;33.03
69715;HTU21D;56981;53.532;49.398;2023-08-31T10:00:30;22.61;33.61
69715;HTU21D;56981;53.532;49.398;2023-08-31T10:03:00;22.64;33.69
69715;HTU21D;56981;53.532;49.398;2023-08-31T10:05:28;22.80;33.39
69715;HTU21D;56981;53.532;49.398;2023-08-31T10:07:54;22.79;34.30
69715;HTU21D;56981;53.532;49.398;2023-08-31T10:10:22;22.77;34.51
69715;HTU21D;56981;53.532;49.398;2023-08-31T10:12:51;22.79;33.23
69715;HTU21D;56981;53.532;49.398;2023-08-31T10:15:19;22.69;33.28
69715;HTU21D;56981;53.532;49.398;2023-08-31T10:17:46;22.72;33.44
69715;HTU21D;56981;53.532;49.398;2023-08-31T10:20:15;22.64;33.99
69715;HTU21D;56981;53.532;49.398;2023-08-31T10:22:42;22.68;34.40
69715;HTU21D;56981;53.532;49.398;2023-08-31T10:25:09;22.76;34.52
69715;HTU21D;56981;53.532;49.398;2023-08-31T10:27:39;22.73;34.68
69715;HTU21D;56981;53.532;49.398;2023-08-31T10:35:49;22.49;34.61
69715;HTU21D;56981;53.532;49.398;2023-08-31T10:38:16;22.52;34.12
69715;HTU21D;56981;53.532;49.398;2023-08-31T10:40:42;22.54;33.86
69715;HTU21D;56981;53.532;49.398;2023-08-31T10:43:14;22.62;33.47
69715;HTU21D;56981;53.532;49.398;2023-08-31T10:45:44;22.69;35.10
69715;HTU21D;56981;53.532;49.398;2023-08-31T10:48:11;22.49;34.66
69715;HTU21D;56981;53.532;49.398;2023-08-31T10:50:45;22.43;36.30
69715;HTU21D;56981;53.532;49.398;2023-08-31T10:53:13;22.42;34.93
69715;HTU21D;56981;53.532;49.398;2023-08-31T10:56:05;22.35;34.58
69715;HTU21D;56981;53.532;49.398;2023-08-31T10:58:32;22.33;35.15
69715;HTU21D;56981;53.532;49.398;2023-08-31T11:00:58;22.35;35.40
69715;HTU21D;56981;53.532;49.398;2023-08-31T11:03:24;22.33;35.51
69715;HTU21D;56981;53.532;49.398;2023-08-31T11:05:53;22.29;36.18
69715;HTU21D;56981;53.532;49.398;2023-08-31T11:08:23;22.21;36.47
69715;HTU21D;56981;53.532;49.398;2023-08-31T11:10:51;22.23;35.85
69715;HTU21D;56981;53.532;49.398;2023-08-31T11:13:22;22.34;36.78
69715;HTU21D;56981;53.532;49.398;2023-08-31T11:15:49;22.33;37.30
69715;HTU21D;56981;53.532;49.398;2023-08-31T11:18:20;22.37;36.35
69715;HTU21D;56981;53.532;49.398;2023-08-31T11:20:47;22.33;34.99
69715;HTU21D;56981;53.532;49.398;2023-08-31T11:23:14;22.29;35.02
69715;HTU21D;56981;53.532;49.398;2023-08-31T11:25:41;22.34;34.72
69715;HTU21D;56981;53.532;49.398;2023-08-31T11:28:07;22.36;35.53
69715;HTU21D;56981;53.532;49.398;2023-08-31T11:30:35;22.37;34.63
69715;HTU21D;56981;53.532;49.398;2023-08-31T11:33:04;22.31;34.17
69715;HTU21D;56981;53.532;49.398;2023-08-31T11:35:35;22.38;34.51
69715;HTU21D;56981;53.532;49.398;2023-08-31T11:38:02;22.42;34.74
69715;HTU21D;56981;53.532;49.398;2023-08-31T11:40:29;22.32;34.37
69715;HTU21D;56981;53.532;49.398;2023-08-31T11:42:57;22.25;34.76
69715;HTU21D;56981;53.532;49.398;2023-08-31T11:45:24;22.26;35.20
69715;HTU21D;56981;53.532;49.398;2023-08-31T11:47:51;22.32;35.13
69715;HTU21D;56981;53.532;49.398;2023-08-31T11:50:19;22.34;34.28
69715;HTU21D;56981;53.532;49.398;2023-08-31T11:52:47;22.41;34.71
69715;HTU21D;56981;53.532;49.398;2023-08-31T11:55:16;22.36;34.08
69715;HTU21D;56981;53.532;49.398;2023-08-31T11:57:54;22.28;33.60
69715;HTU21D;56981;53.532;49.398;2023-08-31T12:00:21;22.22;34.18
69715;HTU21D;56981;53.532;49.398;2023-08-31T12:03:09;22.23;35.47
69715;HTU21D;56981;53.532;49.398;2023-08-31T12:05:46;22.23;33.86
69715;HTU21D;56981;53.532;49.398;2023-08-31T12:08:13;22.16;34.92
69715;HTU21D;56981;53.532;49.398;2023-08-31T12:10:40;22.17;35.75
69715;HTU21D;56981;53.532;49.398;2023-08-31T12:13:11;22.16;34.32
69715;HTU21D;56981;53.532;49.398;2023-08-31T12:15:38;22.18;34.76
69715;HTU21D;56981;53.532;49.398;2023-08-31T12:18:12;22.19;33.86
69715;HTU21D;56981;53.532;49.398;2023-08-31T12:20:50;22.11;34.28
69715;HTU21D;56981;53.532;49.398;2023-08-31T12:23:20;22.04;33.96
69715;HTU21D;56981;53.532;49.398;2023-08-31T12:25:54;22.01;34.05
69715;HTU21D;56981;53.532;49.398;2023-08-31T12:28:21;22.03;35.64
69715;HTU21D;56981;53.532;49.398;2023-08-31T12:30:49;22.12;35.00
69715;HTU21D;56981;53.532;49.398;2023-08-31T12:33:16;22.11;35.38
69715;HTU21D;56981;53.532;49.398;2023-08-31T12:35:43;22.16;35.75
69715;HTU21D;56981;53.532;49.398;2023-08-31T12:38:10;22.18;36.22
69715;HTU21D;56981;53.532;49.398;2023-08-31T12:40:37;22.04;36.99
69715;HTU21D;56981;53.532;49.398;2023-08-31T12:43:05;21.95;37.21
69715;HTU21D;56981;53.532;49.398;2023-08-31T12:45:32;21.95;37.30
69715;HTU21D;56981;53.532;49.398;2023-08-31T12:47:59;22.01;36.26
69715;HTU21D;56981;53.532;49.398;2023-08-31T12:50:30;22.03;34.30
69715;HTU21D;56981;53.532;49.398;2023-08-31T12:52:56;22.04;34.65
69715;HTU21D;56981;53.532;49.398;2023-08-31T12:55:23;22.01;36.12
69715;HTU21D;56981;53.532;49.398;2023-08-31T12:57:49;21.97;35.15
69715;HTU21D;56981;53.532;49.398;2023-08-31T13:00:15;21.95;36.02
69715;HTU21D;56981;53.532;49.398;2023-08-31T13:02:42;22.03;36.37
69715;HTU21D;56981;53.532;49.398;2023-08-31T13:05:11;22.02;35.71
69715;HTU21D;56981;53.532;49.398;2023-08-31T13:07:37;21.99;35.03
69715;HTU21D;56981;53.532;49.398;2023-08-31T13:10:04;21.99;35.09
69715;HTU21D;56981;53.532;49.398;2023-08-31T13:12:31;21.97;35.53
69715;HTU21D;56981;53.532;49.398;2023-08-31T13:14:59;21.96;34.92
69715;HTU21D;56981;53.532;49.398;2023-08-31T13:17:25;21.96;35.99
69715;HTU21D;56981;53.532;49.398;2023-08-31T13:19:58;21.97;35.44
69715;HTU21D;56981;53.532;49.398;2023-08-31T13:22:24;21.93;35.69
69715;HTU21D;56981;53.532;49.398;2023-08-31T13:24:51;21.85;35.21
69715;HTU21D;56981;53.532;49.398;2023-08-31T13:27:17;21.84;35.77
69715;HTU21D;56981;53.532;49.398;2023-08-31T13:29:44;21.85;36.71
69715;HTU21D;56981;53.532;49.398;2023-08-31T13:32:10;21.85;36.06
69715;HTU21D;56981;53.532;49.398;2023-08-31T13:34:36;21.85;36.09
69715;HTU21D;56981;53.532;49.398;2023-08-31T13:37:03;21.84;36.04
69715;HTU21D;56981;53.532;49.398;2023-08-31T13:39:30;21.84;37.17
69715;HTU21D;56981;53.532;49.398;2023-08-31T13:41:57;21.81;37.34
69715;HTU21D;56981;53.532;49.398;2023-08-31T13:44:23;21.80;37.22
69715;HTU21D;56981;53.532;49.398;2023-08-31T13:46:49;21.78;36.58
69715;HTU21D;56981;53.532;49.398;2023-08-31T13:49:16;21.75;37.71
69715;HTU21D;56981;53.532;49.398;2023-08-31T13:51:42;21.74;38.48
69715;HTU21D;56981;53.532;49.398;2023-08-31T13:54:08;21.74;37.49
69715;HTU21D;56981;53.532;49.398;2023-08-31T13:56:35;21.75;37.66
69715;HTU21D;56981;53.532;49.398;2023-08-31T13:59:01;21.73;37.59
69715;HTU21D;56981;53.532;49.398;2023-08-31T14:01:27;21.69;37.03
69715;HTU21D;56981;53.532;49.398;2023-08-31T14:03:53;21.69;36.95
69715;HTU21D;56981;53.532;49.398;2023-08-31T14:06:20;21.67;37.24
69715;HTU21D;56981;53.532;49.398;2023-08-31T14:08:46;21.63;37.31
69715;HTU21D;56981;53.532;49.398;2023-08-31T14:11:13;21.60;37.14
69715;HTU21D;56981;53.532;49.398;2023-08-31T14:13:42;21.61;38.05
69715;HTU21D;56981;53.532;49.398;2023-08-31T14:16:09;21.60;37.91
69715;HTU21D;56981;53.532;49.398;2023-08-31T14:18:35;21.53;37.89
69715;HTU21D;56981;53.532;49.398;2023-08-31T14:21:01;21.49;38.36
69715;HTU21D;56981;53.532;49.398;2023-08-31T14:23:29;21.42;39.17
69715;HTU21D;56981;53.532;49.398;2023-08-31T14:26:02;21.42;39.28
69715;HTU21D;56981;53.532;49.398;2023-08-31T14:28:29;21.36;38.94
69715;HTU21D;56981;53.532;49.398;2023-08-31T14:30:55;21.33;39.57
69715;HTU21D;56981;53.532;49.398;2023-08-31T14:33:21;21.31;39.94
69715;HTU21D;56981;53.532;49.398;2023-08-31T14:35:49;21.29;39.85
69715;HTU21D;56981;53.532;49.398;2023-08-31T14:38:23;21.22;40.35
69715;HTU21D;56981;53.532;49.398;2023-08-31T14:40:50;21.13;39.85
69715;HTU21D;56981;53.532;49.398;2023-08-31T14:43:17;21.07;40.51
69715;HTU21D;56981;53.532;49.398;2023-08-31T14:45:43;21.00;40.80
69715;HTU21D;56981;53.532;49.398;2023-08-31T14:48:09;20.96;41.07
69715;HTU21D;56981;53.532;49.398;2023-08-31T14:50:35;20.87;40.68
69715;HTU21D;56981;53.532;49.398;2023-08-31T14:53:01;20.84;41.97
69715;HTU21D;56981;53.532;49.398;2023-08-31T14:55:28;20.77;41.65
69715;HTU21D;56981;53.532;49.398;2023-08-31T14:57:54;20.71;42.33
69715;HTU21D;56981;53.532;49.398;2023-08-31T15:00:20;20.60;42.14
69715;HTU21D;56981;53.532;49.398;2023-08-31T15:02:47;20.51;42.68
69715;HTU21D;56981;53.532;49.398;2023-08-31T15:05:14;20.45;43.40
69715;HTU21D;56981;53.532;49.398;2023-08-31T15:07:40;20.39;44.03
69715;HTU21D;56981;53.532;49.398;2023-08-31T15:10:06;20.29;44.20
69715;HTU21D;56981;53.532;49.398;2023-08-31T15:12:33;20.20;44.94
69715;HTU21D;56981;53.532;49.398;2023-08-31T15:15:04;20.10;45.29
69715;HTU21D;56981;53.532;49.398;2023-08-31T15:17:31;20.01;45.51
69715;HTU21D;56981;53.532;49.398;2023-08-31T15:19:57;19.95;45.90